Terminal Aerodrome Forecast
Issued by NWS

Home | Current Version | Previous Version | Text Only | Print | Product List | Glossary On
Versions: 1 2 3 4 5 6 7 8 9 10 11 12 13 14
551
FTPA31 PHFO 101732
TAFHLI
TAF
PHLI 101732Z 1018/1118 27006KT P6SM SKC
     FM102100 10008KT P6SM SCT040
     FM110500 VRB06KT P6SM SCT040
     FM110800 27006KT P6SM FEW040=

USA.gov is the U.S. government's official web portal to all federal, state and local government web resources and services.